createdAt,value
2023-05-14T00:00:35.308Z,53.66
2023-05-14T00:01:35.345Z,54.08
2023-05-14T00:02:35.498Z,52.85
2023-05-14T00:03:35.551Z,50.90
2023-05-14T00:04:35.621Z,55.96
2023-05-14T00:05:35.596Z,53.12
2023-05-14T00:06:35.677Z,51.67
2023-05-14T00:07:35.752Z,51.59
2023-05-14T00:08:35.797Z,52.71
2023-05-14T00:09:35.836Z,54.73
2023-05-14T00:10:35.927Z,54.16
2023-05-14T00:11:35.976Z,51.54
2023-05-14T00:12:36.044Z,54.57
2023-05-14T00:13:36.070Z,53.85
2023-05-14T00:14:36.166Z,53.18
2023-05-14T00:15:36.249Z,53.47
2023-05-14T00:16:36.332Z,54.90
2023-05-14T00:17:36.369Z,55.59
2023-05-14T00:18:36.688Z,53.14
2023-05-14T00:19:36.499Z,54.43
2023-05-14T00:20:36.538Z,52.26
2023-05-14T00:21:36.590Z,51.88
2023-05-14T00:22:36.629Z,54.00
2023-05-14T00:23:36.659Z,53.12
2023-05-14T00:24:36.701Z,51.00
2023-05-14T00:25:36.746Z,54.01
2023-05-14T00:26:36.732Z,52.71
2023-05-14T00:27:36.770Z,51.50
2023-05-14T00:28:36.823Z,51.86
2023-05-14T00:29:36.799Z,50.31
2023-05-14T00:30:36.837Z,52.03
2023-05-14T00:31:36.898Z,50.64
2023-05-14T00:32:36.918Z,51.88
2023-05-14T00:33:36.896Z,50.21
2023-05-14T00:34:36.936Z,49.76
2023-05-14T00:35:36.958Z,50.67
2023-05-14T00:36:36.976Z,49.44
2023-05-14T00:37:36.988Z,50.90
2023-05-14T00:38:37.012Z,49.85
2023-05-14T00:39:37.044Z,50.58
2023-05-14T00:40:37.043Z,50.37
2023-05-14T00:41:37.062Z,47.77
2023-05-14T00:42:37.077Z,49.27
2023-05-14T00:43:37.102Z,52.13
2023-05-14T00:44:37.151Z,49.02
2023-05-14T00:45:37.153Z,46.87
2023-05-14T00:46:37.230Z,49.24
2023-05-14T00:47:37.202Z,49.59
2023-05-14T00:48:37.209Z,51.45
2023-05-14T00:49:37.235Z,51.68
2023-05-14T00:50:37.264Z,50.77
2023-05-14T00:51:37.261Z,47.25
2023-05-14T00:52:37.269Z,48.08
2023-05-14T00:53:37.302Z,51.46
2023-05-14T00:54:37.317Z,51.98
2023-05-14T00:55:37.356Z,50.87
2023-05-14T00:56:37.371Z,51.40
2023-05-14T00:57:37.419Z,49.07
2023-05-14T00:58:37.469Z,47.88
2023-05-14T00:59:37.547Z,49.88
2023-05-14T01:00:37.717Z,51.74
2023-05-14T01:01:37.655Z,51.15
2023-05-14T01:02:37.790Z,51.12
2023-05-14T01:03:37.907Z,49.98
2023-05-14T01:04:37.834Z,45.46
2023-05-14T01:05:37.896Z,49.45
2023-05-14T01:06:37.988Z,50.98
2023-05-14T01:07:38.078Z,50.24
2023-05-14T01:08:38.105Z,49.01
2023-05-14T01:09:38.162Z,50.00
2023-05-14T01:10:38.194Z,48.90
2023-05-14T01:11:38.394Z,49.89
2023-05-14T01:12:38.352Z,49.43
2023-05-14T01:13:38.421Z,50.24
2023-05-14T01:14:38.482Z,47.66
2023-05-14T01:15:38.523Z,47.67
2023-05-14T01:16:38.601Z,50.51
2023-05-14T01:17:38.639Z,47.98
2023-05-14T01:18:38.647Z,48.40
2023-05-14T01:19:38.628Z,48.13
2023-05-14T01:20:38.693Z,49.27
2023-05-14T01:21:38.686Z,49.94
2023-05-14T01:22:38.695Z,47.30
2023-05-14T01:23:38.738Z,46.95
2023-05-14T01:24:38.772Z,49.06
2023-05-14T01:25:38.828Z,48.11
2023-05-14T01:26:38.817Z,51.54
2023-05-14T01:27:38.819Z,48.19
2023-05-14T01:28:38.867Z,48.67
2023-05-14T01:29:38.882Z,49.92
2023-05-14T01:30:38.882Z,47.09
2023-05-14T01:31:38.925Z,48.90
2023-05-14T01:32:38.964Z,47.33
2023-05-14T01:33:38.983Z,47.37
2023-05-14T01:34:39.042Z,48.62
2023-05-14T01:35:39.008Z,45.71
2023-05-14T01:36:39.039Z,47.45
2023-05-14T01:37:39.054Z,49.80
2023-05-14T01:38:39.113Z,47.03
2023-05-14T01:39:39.123Z,48.25
2023-05-14T01:40:39.192Z,42.18
2023-05-14T01:41:39.201Z,48.20
2023-05-14T01:42:39.264Z,47.37
2023-05-14T01:43:39.326Z,47.26
2023-05-14T01:44:39.387Z,48.30
2023-05-14T01:45:39.485Z,46.01
2023-05-14T01:46:39.532Z,46.14
2023-05-14T01:47:39.550Z,43.71
2023-05-14T01:48:39.595Z,44.30
2023-05-14T01:49:39.656Z,45.32
2023-05-14T01:50:39.714Z,46.75
2023-05-14T01:51:39.770Z,44.03
2023-05-14T01:52:39.842Z,47.80
2023-05-14T01:53:39.888Z,45.80
2023-05-14T01:54:39.967Z,46.81
2023-05-14T01:55:40.027Z,46.58
2023-05-14T01:56:40.085Z,45.00
2023-05-14T01:57:40.085Z,42.86
2023-05-14T01:58:40.163Z,45.47
2023-05-14T01:59:40.201Z,46.96
2023-05-14T02:00:40.221Z,47.75
2023-05-14T02:01:40.345Z,46.30
2023-05-14T02:02:40.318Z,46.40
2023-05-14T02:03:40.413Z,47.83
2023-05-14T02:04:40.404Z,46.99
2023-05-14T02:05:40.402Z,45.64
2023-05-14T02:06:40.438Z,43.22
2023-05-14T02:07:40.473Z,46.48
2023-05-14T02:08:40.556Z,45.19
2023-05-14T02:09:40.512Z,47.66
2023-05-14T02:10:40.555Z,47.57
2023-05-14T02:11:40.582Z,45.07
2023-05-14T02:12:40.585Z,45.36
2023-05-14T02:13:40.600Z,44.45
2023-05-14T02:14:40.639Z,41.71
2023-05-14T02:15:40.689Z,44.32
2023-05-14T02:16:40.743Z,46.30
2023-05-14T02:17:40.723Z,46.29
2023-05-14T02:18:40.800Z,45.87
2023-05-14T02:19:40.858Z,44.33
2023-05-14T02:20:40.892Z,43.01
2023-05-14T02:21:40.973Z,46.12
2023-05-14T02:22:41.052Z,45.42
2023-05-14T02:23:42.131Z,47.44
2023-05-14T02:24:41.176Z,43.56
2023-05-14T02:25:41.237Z,44.11
2023-05-14T02:26:41.269Z,41.97
2023-05-14T02:27:41.335Z,44.40
2023-05-14T02:28:41.416Z,44.63
2023-05-14T02:29:41.461Z,44.59
2023-05-14T02:30:41.505Z,44.00
2023-05-14T02:31:41.597Z,42.79
2023-05-14T02:32:41.707Z,42.77
2023-05-14T02:33:41.677Z,39.71
2023-05-14T02:34:41.630Z,42.37
2023-05-14T02:35:41.631Z,43.43
2023-05-14T02:36:41.649Z,43.70
2023-05-14T02:37:41.701Z,38.33
2023-05-14T02:38:41.760Z,41.88
2023-05-14T02:39:41.805Z,41.67
2023-05-14T02:40:41.879Z,42.04
2023-05-14T02:41:41.924Z,40.32
2023-05-14T02:42:42.030Z,42.52
2023-05-14T02:43:42.053Z,40.89
2023-05-14T02:44:42.156Z,41.40
2023-05-14T02:45:42.158Z,41.57
2023-05-14T02:46:42.263Z,39.91
2023-05-14T02:47:42.375Z,41.58
2023-05-14T02:48:42.369Z,41.10
2023-05-14T02:49:42.413Z,40.90
2023-05-14T02:50:42.468Z,40.68
2023-05-14T02:51:42.566Z,37.53
2023-05-14T02:52:42.609Z,40.42
2023-05-14T02:53:42.668Z,39.44
2023-05-14T02:54:42.748Z,39.34
2023-05-14T02:55:42.792Z,40.43
2023-05-14T02:56:42.829Z,40.86
2023-05-14T02:57:42.914Z,40.30
2023-05-14T02:58:42.974Z,39.77
2023-05-14T02:59:43.003Z,39.77
2023-05-14T03:00:43.054Z,40.45
2023-05-14T03:01:43.119Z,42.04
2023-05-14T03:02:43.354Z,40.70
2023-05-14T03:03:43.243Z,41.14
2023-05-14T03:04:43.289Z,39.21
2023-05-14T03:05:43.341Z,36.18
2023-05-14T03:06:43.403Z,39.64
2023-05-14T03:07:43.443Z,38.78
2023-05-14T03:08:43.555Z,38.62
2023-05-14T03:09:43.552Z,35.48
2023-05-14T03:10:43.623Z,34.77
2023-05-14T03:11:43.685Z,38.44
2023-05-14T03:12:43.750Z,34.86
2023-05-14T03:13:43.765Z,36.89
2023-05-14T03:14:43.853Z,36.26
2023-05-14T03:15:43.905Z,38.65
2023-05-14T03:16:44.029Z,35.67
2023-05-14T03:17:44.080Z,38.86
2023-05-14T03:18:44.057Z,35.85
2023-05-14T03:19:44.047Z,37.97
2023-05-14T03:20:44.060Z,34.58
2023-05-14T03:21:44.106Z,37.30
2023-05-14T03:22:44.104Z,39.87
2023-05-14T03:23:44.159Z,37.59
2023-05-14T03:24:44.228Z,37.31
2023-05-14T03:25:44.249Z,34.82
2023-05-14T03:26:44.306Z,34.33
2023-05-14T03:27:44.448Z,36.81
2023-05-14T03:28:44.419Z,36.64
2023-05-14T03:29:44.469Z,34.06
2023-05-14T03:30:44.558Z,37.32
2023-05-14T03:31:44.585Z,38.38
2023-05-14T03:32:44.830Z,37.85
2023-05-14T03:33:44.747Z,38.58
2023-05-14T03:34:44.820Z,34.87
2023-05-14T03:35:44.838Z,35.25
2023-05-14T03:36:44.842Z,39.76
2023-05-14T03:37:44.872Z,39.94
2023-05-14T03:38:44.930Z,37.18
2023-05-14T03:39:44.985Z,36.15
2023-05-14T03:40:44.959Z,34.40
2023-05-14T03:41:44.996Z,35.61
2023-05-14T03:42:45.021Z,40.22
2023-05-14T03:43:45.046Z,36.74
2023-05-14T03:44:45.051Z,34.81
2023-05-14T03:45:45.090Z,35.29
2023-05-14T03:46:45.173Z,36.81
2023-05-14T03:47:45.234Z,34.11
2023-05-14T03:48:45.333Z,38.92
2023-05-14T03:49:45.310Z,35.35
2023-05-14T03:50:45.339Z,40.34
2023-05-14T03:51:45.387Z,36.88
2023-05-14T03:52:45.417Z,38.50
2023-05-14T03:53:45.459Z,37.33
2023-05-14T03:54:45.471Z,37.27
2023-05-14T03:55:45.539Z,34.83
2023-05-14T03:56:45.557Z,37.43
2023-05-14T03:57:45.607Z,34.44
2023-05-14T03:58:45.669Z,33.69
2023-05-14T03:59:45.681Z,37.67
2023-05-14T04:00:45.704Z,35.51
2023-05-14T04:01:45.771Z,33.28
2023-05-14T04:02:45.831Z,33.19
2023-05-14T04:03:46.069Z,38.38
2023-05-14T04:04:45.844Z,36.13
2023-05-14T04:05:45.865Z,33.77
2023-05-14T04:06:45.877Z,32.08
2023-05-14T04:07:45.927Z,35.52
2023-05-14T04:08:45.965Z,32.16
2023-05-14T04:09:45.975Z,29.41
2023-05-14T04:10:46.013Z,32.67
2023-05-14T04:11:46.012Z,31.55
2023-05-14T04:12:46.035Z,32.97
2023-05-14T04:13:46.047Z,30.39
2023-05-14T04:14:46.079Z,31.77
2023-05-14T04:15:46.146Z,31.14
2023-05-14T04:16:46.271Z,30.26
2023-05-14T04:17:46.212Z,30.78
2023-05-14T04:18:46.217Z,30.68
2023-05-14T04:19:46.249Z,35.13
2023-05-14T04:20:46.271Z,32.16
2023-05-14T04:21:46.281Z,30.26
2023-05-14T04:22:46.306Z,31.30
2023-05-14T04:23:46.387Z,33.35
2023-05-14T04:24:46.400Z,31.75
2023-05-14T04:25:46.405Z,32.42
2023-05-14T04:26:46.450Z,30.97
2023-05-14T04:27:46.489Z,32.49
2023-05-14T04:28:46.497Z,32.49
2023-05-14T04:29:46.531Z,32.84
2023-05-14T04:30:46.565Z,29.37
2023-05-14T04:31:46.726Z,32.44
2023-05-14T04:32:46.677Z,32.06
2023-05-14T04:33:46.650Z,30.74
2023-05-14T04:34:46.664Z,30.82
2023-05-14T04:35:46.722Z,29.49
2023-05-14T04:36:46.723Z,29.20
2023-05-14T04:37:46.755Z,33.00
2023-05-14T04:38:46.803Z,32.15
2023-05-14T04:39:46.840Z,29.97
2023-05-14T04:40:46.841Z,31.70
2023-05-14T04:41:46.891Z,30.07
2023-05-14T04:42:46.879Z,30.68
2023-05-14T04:43:46.929Z,30.11
2023-05-14T04:44:46.957Z,32.63
2023-05-14T04:45:47.017Z,31.97
2023-05-14T04:46:46.945Z,30.86
2023-05-14T04:47:47.061Z,29.85
2023-05-14T04:48:47.036Z,31.97
2023-05-14T04:49:47.102Z,30.36
2023-05-14T04:50:47.150Z,33.72
2023-05-14T04:51:47.175Z,29.44
2023-05-14T04:52:47.179Z,32.22
2023-05-14T04:53:47.210Z,29.58
2023-05-14T04:54:47.239Z,28.50
2023-05-14T04:55:47.234Z,32.06
2023-05-14T04:56:47.255Z,29.70
2023-05-14T04:57:47.257Z,31.14
2023-05-14T04:58:47.281Z,30.00
2023-05-14T04:59:47.284Z,30.07
2023-05-14T05:00:47.311Z,35.24
2023-05-14T05:01:47.580Z,31.98
2023-05-14T05:02:47.402Z,27.51
2023-05-14T05:03:47.406Z,29.73
2023-05-14T05:04:47.408Z,29.72
2023-05-14T05:05:47.398Z,29.77
2023-05-14T05:06:47.430Z,30.48
2023-05-14T05:07:47.460Z,30.16
2023-05-14T05:08:47.468Z,31.44
2023-05-14T05:09:47.504Z,31.99
2023-05-14T05:10:47.495Z,27.58
2023-05-14T05:11:47.539Z,29.87
2023-05-14T05:12:47.557Z,28.82
2023-05-14T05:13:47.543Z,25.00
2023-05-14T05:14:47.595Z,27.67
2023-05-14T05:15:47.700Z,29.69
2023-05-14T05:16:47.601Z,32.50
2023-05-14T05:17:47.695Z,27.53
2023-05-14T05:18:47.725Z,28.49
2023-05-14T05:19:47.631Z,28.84
2023-05-14T05:20:47.691Z,29.24
2023-05-14T05:21:47.673Z,27.98
2023-05-14T05:22:47.701Z,28.46
2023-05-14T05:23:47.688Z,31.00
2023-05-14T05:24:49.795Z,30.87
2023-05-14T05:25:47.732Z,27.64
2023-05-14T05:26:47.744Z,29.68
2023-05-14T05:27:47.749Z,31.08
2023-05-14T05:28:47.754Z,29.38
2023-05-14T05:29:47.806Z,27.08
2023-05-14T05:30:47.836Z,26.87
2023-05-14T05:31:47.909Z,28.00
2023-05-14T05:32:47.918Z,27.97
2023-05-14T05:33:47.952Z,33.13
2023-05-14T05:34:47.959Z,28.32
2023-05-14T05:35:48.041Z,30.10
2023-05-14T05:36:48.064Z,29.62
2023-05-14T05:37:48.164Z,29.34
2023-05-14T05:38:48.206Z,30.41
2023-05-14T05:39:48.275Z,29.02
2023-05-14T05:40:48.322Z,29.80
2023-05-14T05:41:48.383Z,27.93
2023-05-14T05:42:48.417Z,28.58
2023-05-14T05:43:48.492Z,30.82
2023-05-14T05:44:48.502Z,29.22
2023-05-14T05:45:48.557Z,26.53
2023-05-14T05:46:48.644Z,28.87
2023-05-14T05:47:48.718Z,25.00
2023-05-14T05:48:48.720Z,27.36
2023-05-14T05:49:48.749Z,26.27
2023-05-14T05:50:48.776Z,28.38
2023-05-14T05:51:48.781Z,29.18
2023-05-14T05:52:48.808Z,30.06
2023-05-14T05:53:48.853Z,30.28
2023-05-14T05:54:48.885Z,28.79
2023-05-14T05:55:48.916Z,29.32
2023-05-14T05:56:48.965Z,30.35
2023-05-14T05:57:48.997Z,30.69
2023-05-14T05:58:49.000Z,29.31
2023-05-14T05:59:49.063Z,31.73
2023-05-14T06:00:49.107Z,27.58
2023-05-14T06:01:49.175Z,28.81
2023-05-14T06:02:49.198Z,29.63
2023-05-14T06:03:49.260Z,26.61
2023-05-14T06:04:49.341Z,30.70
2023-05-14T06:05:49.395Z,29.11
2023-05-14T06:06:49.385Z,32.05
2023-05-14T06:07:49.431Z,28.45
2023-05-14T06:08:49.483Z,28.87
2023-05-14T06:09:49.518Z,28.04
2023-05-14T06:10:49.550Z,27.74
2023-05-14T06:11:49.623Z,28.64
2023-05-14T06:12:49.653Z,31.60
2023-05-14T06:13:49.701Z,29.42
2023-05-14T06:14:49.738Z,29.78
2023-05-14T06:15:49.767Z,28.18
2023-05-14T06:16:49.907Z,25.63
2023-05-14T06:17:49.897Z,29.09
2023-05-14T06:18:49.953Z,30.90
2023-05-14T06:19:49.969Z,30.94
2023-05-14T06:20:50.013Z,25.94
2023-05-14T06:21:50.012Z,26.52
2023-05-14T06:22:50.049Z,27.68
2023-05-14T06:23:50.058Z,26.76
2023-05-14T06:24:50.108Z,28.10
2023-05-14T06:25:50.854Z,27.56
2023-05-14T06:26:50.211Z,28.64
2023-05-14T06:27:50.243Z,25.92
2023-05-14T06:28:50.271Z,27.96
2023-05-14T06:29:50.320Z,25.40
2023-05-14T06:30:50.393Z,31.32
2023-05-14T06:31:50.449Z,28.36
2023-05-14T06:32:50.429Z,26.75
2023-05-14T06:33:50.441Z,26.83
2023-05-14T06:34:50.462Z,28.84
2023-05-14T06:35:50.496Z,28.38
2023-05-14T06:36:50.493Z,26.25
2023-05-14T06:37:50.536Z,25.83
2023-05-14T06:38:50.591Z,26.89
2023-05-14T06:39:50.591Z,26.91
2023-05-14T06:40:50.604Z,29.75
2023-05-14T06:41:50.653Z,27.51
2023-05-14T06:42:50.686Z,30.25
2023-05-14T06:43:50.712Z,29.58
2023-05-14T06:44:50.713Z,27.42
2023-05-14T06:45:50.892Z,25.39
2023-05-14T06:46:50.826Z,29.09
2023-05-14T06:47:50.908Z,28.00
2023-05-14T06:48:50.937Z,28.00
2023-05-14T06:49:50.949Z,25.00
2023-05-14T06:50:50.984Z,27.49
2023-05-14T06:51:51.007Z,26.05
2023-05-14T06:52:51.035Z,28.09
2023-05-14T06:53:51.059Z,28.89
2023-05-14T06:54:51.066Z,27.06
2023-05-14T06:55:51.107Z,28.21
2023-05-14T06:56:51.125Z,28.99
2023-05-14T06:57:51.162Z,30.36
2023-05-14T06:58:51.200Z,28.64
2023-05-14T06:59:51.197Z,29.16
2023-05-14T07:00:51.233Z,27.92
2023-05-14T07:01:51.310Z,29.27
2023-05-14T07:02:51.380Z,29.55
2023-05-14T07:03:51.434Z,29.69
2023-05-14T07:04:51.431Z,30.37
2023-05-14T07:05:51.484Z,27.29
2023-05-14T07:06:51.510Z,30.86
2023-05-14T07:07:51.581Z,30.86
2023-05-14T07:08:51.647Z,32.04
2023-05-14T07:09:51.680Z,29.06
2023-05-14T07:10:51.767Z,31.34
2023-05-14T07:11:51.772Z,30.57
2023-05-14T07:12:51.847Z,27.61
2023-05-14T07:13:52.028Z,31.23
2023-05-14T07:14:51.885Z,28.23
2023-05-14T07:15:51.957Z,27.83
2023-05-14T07:16:52.034Z,30.54
2023-05-14T07:17:52.130Z,27.35
2023-05-14T07:18:52.133Z,29.46
2023-05-14T07:19:52.157Z,30.46
2023-05-14T07:20:52.236Z,32.83
2023-05-14T07:21:52.253Z,28.28
2023-05-14T07:22:52.330Z,28.36
2023-05-14T07:23:52.363Z,27.32
2023-05-14T07:24:52.439Z,30.04
2023-05-14T07:25:52.468Z,26.16
2023-05-14T07:26:52.532Z,29.65
2023-05-14T07:27:52.565Z,29.71
2023-05-14T07:28:52.666Z,28.79
2023-05-14T07:29:52.685Z,26.18
2023-05-14T07:30:53.372Z,26.44
2023-05-14T07:31:52.839Z,28.37
2023-05-14T07:32:52.804Z,27.94
2023-05-14T07:33:52.847Z,29.49
2023-05-14T07:34:52.871Z,26.09
2023-05-14T07:35:52.918Z,27.66
2023-05-14T07:36:52.951Z,30.50
2023-05-14T07:37:52.984Z,30.85
2023-05-14T07:38:53.002Z,30.15
2023-05-14T07:39:53.086Z,30.48
2023-05-14T07:40:53.138Z,32.21
2023-05-14T07:41:53.197Z,32.47
2023-05-14T07:42:53.223Z,30.53
2023-05-14T07:43:53.284Z,33.14
2023-05-14T07:44:53.283Z,28.56
2023-05-14T07:45:53.299Z,30.32
2023-05-14T07:46:53.348Z,29.01
2023-05-14T07:47:53.450Z,29.00
2023-05-14T07:48:53.387Z,29.33
2023-05-14T07:49:53.408Z,29.12
2023-05-14T07:50:53.412Z,31.09
2023-05-14T07:51:53.430Z,30.78
2023-05-14T07:52:53.447Z,30.56
2023-05-14T07:53:53.485Z,32.09
2023-05-14T07:54:53.522Z,31.88
2023-05-14T07:55:53.549Z,37.12
2023-05-14T07:56:53.539Z,36.59
2023-05-14T07:57:53.566Z,34.78
2023-05-14T07:58:53.619Z,33.66
2023-05-14T07:59:53.599Z,33.49
2023-05-14T08:00:53.617Z,34.85
2023-05-14T08:01:53.681Z,36.45
2023-05-14T08:02:53.822Z,34.16
2023-05-14T08:03:53.754Z,33.27
2023-05-14T08:04:53.717Z,33.44
2023-05-14T08:05:53.711Z,32.56
2023-05-14T08:06:53.748Z,30.69
2023-05-14T08:07:53.778Z,34.85
2023-05-14T08:08:53.802Z,37.08
2023-05-14T08:09:53.798Z,37.29
2023-05-14T08:10:53.885Z,35.13
2023-05-14T08:11:53.852Z,30.72
2023-05-14T08:12:53.893Z,34.96
2023-05-14T08:13:53.897Z,27.95
2023-05-14T08:14:53.902Z,33.87
2023-05-14T08:15:53.948Z,35.97
2023-05-14T08:16:54.020Z,33.21
2023-05-14T08:17:54.096Z,31.98
2023-05-14T08:18:54.145Z,30.74
2023-05-14T08:19:54.145Z,32.00
2023-05-14T08:20:54.226Z,30.99
2023-05-14T08:21:54.309Z,25.09
2023-05-14T08:22:54.330Z,26.75
2023-05-14T08:23:54.433Z,27.21
2023-05-14T08:24:54.465Z,32.29
2023-05-14T08:25:54.504Z,29.47
2023-05-14T08:26:54.546Z,29.52
2023-05-14T08:27:54.653Z,33.04
2023-05-14T08:28:54.726Z,32.02
2023-05-14T08:29:54.747Z,32.95
2023-05-14T08:30:54.855Z,37.43
2023-05-14T08:31:54.875Z,33.77
2023-05-14T08:32:54.960Z,32.21
2023-05-14T08:33:54.976Z,33.49
2023-05-14T08:34:55.062Z,33.70
2023-05-14T08:35:55.109Z,34.38
2023-05-14T08:36:55.176Z,36.48
2023-05-14T08:37:55.250Z,31.56
2023-05-14T08:38:55.292Z,36.41
2023-05-14T08:39:55.370Z,33.71
2023-05-14T08:40:55.399Z,34.53
2023-05-14T08:41:55.483Z,36.76
2023-05-14T08:42:55.534Z,33.95
2023-05-14T08:43:55.595Z,34.73
2023-05-14T08:44:55.650Z,33.95
2023-05-14T08:45:55.666Z,31.74
2023-05-14T08:46:55.660Z,33.70
2023-05-14T08:47:55.789Z,33.27
2023-05-14T08:48:55.668Z,37.40
2023-05-14T08:49:55.674Z,35.89
2023-05-14T08:50:55.669Z,36.95
2023-05-14T08:51:55.670Z,34.57
2023-05-14T08:52:55.712Z,35.25
2023-05-14T08:53:55.708Z,38.63
2023-05-14T08:54:55.691Z,37.98
2023-05-14T08:55:55.701Z,34.91
2023-05-14T08:56:55.711Z,37.50
2023-05-14T08:57:55.646Z,37.29
2023-05-14T08:58:55.676Z,33.34
2023-05-14T08:59:55.673Z,34.60
2023-05-14T09:00:55.668Z,35.53
2023-05-14T09:01:55.657Z,38.57
2023-05-14T09:02:55.715Z,37.46
2023-05-14T09:03:55.734Z,36.07
2023-05-14T09:04:55.689Z,34.98
2023-05-14T09:05:56.247Z,38.02
2023-05-14T09:06:55.661Z,33.55
2023-05-14T09:07:55.653Z,34.84
2023-05-14T09:08:55.656Z,35.84
2023-05-14T09:09:55.669Z,36.65
2023-05-14T09:10:55.659Z,35.64
2023-05-14T09:11:55.675Z,39.09
2023-05-14T09:12:55.685Z,39.17
2023-05-14T09:13:55.729Z,35.60
2023-05-14T09:14:55.760Z,38.49
2023-05-14T09:15:55.837Z,39.08
2023-05-14T09:16:55.798Z,39.17
2023-05-14T09:17:55.927Z,36.33
2023-05-14T09:18:55.906Z,41.85
2023-05-14T09:19:55.935Z,38.84
2023-05-14T09:20:55.940Z,41.38
2023-05-14T09:21:55.977Z,37.26
2023-05-14T09:22:55.996Z,38.14
2023-05-14T09:23:56.044Z,37.60
2023-05-14T09:24:56.076Z,37.22
2023-05-14T09:25:56.120Z,39.73
2023-05-14T09:26:56.178Z,37.58
2023-05-14T09:27:58.529Z,36.98
2023-05-14T09:28:56.379Z,40.77
2023-05-14T09:29:56.435Z,39.13
2023-05-14T09:30:56.478Z,39.36
2023-05-14T09:31:56.534Z,40.75
2023-05-14T09:32:56.579Z,40.80
2023-05-14T09:33:56.579Z,41.04
2023-05-14T09:34:56.635Z,44.75
2023-05-14T09:35:58.252Z,42.11
2023-05-14T09:36:56.702Z,42.74
2023-05-14T09:37:56.717Z,41.47
2023-05-14T09:38:56.747Z,41.54
2023-05-14T09:39:56.774Z,42.49
2023-05-14T09:40:56.826Z,44.20
2023-05-14T09:41:56.849Z,42.26
2023-05-14T09:42:56.860Z,41.05
2023-05-14T09:43:56.915Z,43.53
2023-05-14T09:44:56.952Z,44.92
2023-05-14T09:45:56.988Z,42.75
2023-05-14T09:46:57.031Z,45.54
2023-05-14T09:47:57.169Z,42.28
2023-05-14T09:48:57.065Z,42.78
2023-05-14T09:49:57.110Z,42.33
2023-05-14T09:50:57.168Z,40.87
2023-05-14T09:51:57.226Z,39.93
2023-05-14T09:52:57.390Z,39.77
2023-05-14T09:53:57.313Z,39.53
2023-05-14T09:54:57.327Z,44.24
2023-05-14T09:55:57.366Z,42.83
2023-05-14T09:56:57.422Z,42.02
2023-05-14T09:57:57.427Z,41.61
2023-05-14T09:58:57.463Z,37.70
2023-05-14T09:59:57.485Z,40.27
2023-05-14T10:00:57.528Z,43.07
2023-05-14T10:01:57.528Z,41.89
2023-05-14T10:02:57.582Z,42.77
2023-05-14T10:03:57.629Z,42.30
2023-05-14T10:04:57.592Z,43.78
2023-05-14T10:05:57.616Z,42.81
2023-05-14T10:06:57.671Z,44.61
2023-05-14T10:07:57.694Z,41.70
2023-05-14T10:08:57.673Z,43.68
2023-05-14T10:09:58.833Z,43.32
2023-05-14T10:10:57.712Z,42.18
2023-05-14T10:11:57.691Z,42.71
2023-05-14T10:12:57.739Z,41.99
2023-05-14T10:13:57.734Z,45.97
2023-05-14T10:14:57.731Z,43.90
2023-05-14T10:15:57.752Z,44.64
2023-05-14T10:16:57.896Z,45.65
2023-05-14T10:17:57.873Z,44.74
2023-05-14T10:18:57.907Z,47.93
2023-05-14T10:19:57.813Z,45.97
2023-05-14T10:20:57.816Z,45.56
2023-05-14T10:21:57.845Z,47.33
2023-05-14T10:22:57.900Z,48.20
2023-05-14T10:23:57.874Z,46.84
2023-05-14T10:24:57.873Z,49.40
2023-05-14T10:25:57.880Z,46.45
2023-05-14T10:26:57.892Z,48.01
2023-05-14T10:27:57.904Z,47.41
2023-05-14T10:28:57.909Z,48.57
2023-05-14T10:29:57.862Z,50.20
2023-05-14T10:30:57.901Z,48.01
2023-05-14T10:31:57.851Z,49.14
2023-05-14T10:32:57.890Z,49.86
2023-05-14T10:33:59.799Z,49.75
2023-05-14T10:34:57.875Z,49.50
2023-05-14T10:35:57.867Z,48.67
2023-05-14T10:36:57.850Z,46.72
2023-05-14T10:37:57.851Z,46.55
2023-05-14T10:38:57.869Z,46.38
2023-05-14T10:39:57.918Z,46.85
2023-05-14T10:40:57.937Z,50.70
2023-05-14T10:41:58.003Z,48.16
2023-05-14T10:42:58.011Z,44.14
2023-05-14T10:43:58.062Z,44.70
2023-05-14T10:44:58.093Z,43.51
2023-05-14T10:45:58.124Z,43.67
2023-05-14T10:46:58.324Z,45.77
2023-05-14T10:47:58.255Z,46.71
2023-05-14T10:48:58.228Z,47.16
2023-05-14T10:49:58.246Z,46.15
2023-05-14T10:50:58.280Z,44.70
2023-05-14T10:51:58.218Z,46.41
2023-05-14T10:52:58.264Z,45.17
2023-05-14T10:53:58.320Z,44.37
2023-05-14T10:54:59.212Z,47.24
2023-05-14T10:55:58.362Z,44.64
2023-05-14T10:56:58.397Z,46.39
2023-05-14T10:57:58.460Z,48.75
2023-05-14T10:58:58.479Z,47.31
2023-05-14T10:59:58.512Z,48.33
2023-05-14T11:00:58.574Z,48.58
2023-05-14T11:01:58.663Z,47.99
2023-05-14T11:02:58.691Z,47.42
2023-05-14T11:03:58.728Z,41.35
2023-05-14T11:04:58.743Z,41.46
2023-05-14T11:05:58.708Z,44.30
2023-05-14T11:06:58.687Z,40.17
2023-05-14T11:07:58.706Z,42.38
2023-05-14T11:08:58.699Z,42.05
2023-05-14T11:09:58.713Z,43.42
2023-05-14T11:10:58.687Z,44.50
2023-05-14T11:11:58.709Z,46.23
2023-05-14T11:12:58.701Z,45.46
2023-05-14T11:13:58.669Z,46.50
2023-05-14T11:14:58.688Z,46.13
2023-05-14T11:15:59.694Z,43.69
2023-05-14T11:16:59.687Z,44.04
2023-05-14T11:17:58.738Z,44.20
2023-05-14T11:18:58.750Z,44.13
2023-05-14T11:19:58.713Z,42.87
2023-05-14T11:20:58.640Z,43.06
2023-05-14T11:21:58.643Z,44.69
2023-05-14T11:22:58.652Z,42.49
2023-05-14T11:23:58.615Z,43.77
2023-05-14T11:24:58.631Z,42.21
2023-05-14T11:25:58.690Z,41.65
2023-05-14T11:26:58.667Z,44.03
2023-05-14T11:27:58.599Z,44.79
2023-05-14T11:28:58.607Z,46.07
2023-05-14T11:29:58.616Z,45.40
2023-05-14T11:30:58.582Z,46.28
2023-05-14T11:31:58.628Z,45.28
2023-05-14T11:33:01.171Z,44.13
2023-05-14T11:33:58.575Z,46.99
2023-05-14T11:34:58.559Z,47.69
2023-05-14T11:35:58.548Z,45.00
2023-05-14T11:36:58.542Z,46.73
2023-05-14T11:37:58.519Z,44.50
2023-05-14T11:38:58.553Z,46.78
2023-05-14T11:39:58.504Z,46.81
2023-05-14T11:40:58.538Z,45.02
2023-05-14T11:41:58.516Z,45.52
2023-05-14T11:42:58.520Z,46.79
2023-05-14T11:43:58.506Z,42.84
2023-05-14T11:44:58.491Z,43.44
2023-05-14T11:45:58.517Z,41.59
2023-05-14T11:46:58.505Z,43.45
2023-05-14T11:47:58.504Z,45.15
2023-05-14T11:48:58.451Z,44.35
2023-05-14T11:49:58.519Z,48.34
2023-05-14T11:50:58.442Z,47.11
2023-05-14T11:51:58.445Z,41.63
2023-05-14T11:52:58.432Z,41.41
2023-05-14T11:53:58.390Z,41.10
2023-05-14T11:54:58.429Z,42.00
2023-05-14T11:55:58.406Z,42.13
2023-05-14T11:56:58.376Z,42.54
2023-05-14T11:57:58.414Z,44.10
2023-05-14T11:58:58.344Z,44.27
2023-05-14T11:59:58.370Z,44.85
2023-05-14T12:00:58.343Z,46.73
2023-05-14T12:01:58.352Z,43.16
2023-05-14T12:02:58.437Z,43.78
2023-05-14T12:03:58.441Z,44.12
2023-05-14T12:04:58.347Z,44.93
2023-05-14T12:05:58.300Z,41.43
2023-05-14T12:06:58.302Z,43.94
2023-05-14T12:07:58.285Z,42.88
2023-05-14T12:08:58.282Z,44.92
2023-05-14T12:09:58.267Z,46.15
2023-05-14T12:10:58.284Z,41.84
2023-05-14T12:11:58.263Z,41.97
2023-05-14T12:12:58.236Z,42.14
2023-05-14T12:13:58.255Z,41.75
2023-05-14T12:14:58.247Z,44.40
2023-05-14T12:15:58.276Z,44.00
2023-05-14T12:16:58.242Z,43.11
2023-05-14T12:17:58.235Z,47.37
2023-05-14T12:18:58.294Z,44.43
2023-05-14T12:19:58.331Z,43.50
2023-05-14T12:20:58.323Z,44.22
2023-05-14T12:21:58.325Z,43.16
2023-05-14T12:22:58.349Z,44.65
2023-05-14T12:23:58.351Z,42.83
2023-05-14T12:24:58.394Z,45.19
2023-05-14T12:25:58.423Z,47.55
2023-05-14T12:26:58.489Z,40.83
2023-05-14T12:27:58.526Z,44.10
2023-05-14T12:28:58.587Z,44.22
2023-05-14T12:30:01.981Z,44.25
2023-05-14T12:30:59.603Z,44.36
2023-05-14T12:31:58.621Z,45.05
2023-05-14T12:32:58.539Z,44.63
2023-05-14T12:33:58.552Z,45.67
2023-05-14T12:34:58.509Z,43.80
2023-05-14T12:36:00.583Z,44.31
2023-05-14T12:36:59.519Z,44.58
2023-05-14T12:37:58.517Z,44.93
2023-05-14T12:38:58.518Z,45.98
2023-05-14T12:39:58.474Z,44.99
2023-05-14T12:40:58.462Z,44.47
2023-05-14T12:41:58.488Z,43.00
2023-05-14T12:42:58.446Z,42.79
2023-05-14T12:43:58.452Z,45.45
2023-05-14T12:44:58.446Z,45.10
2023-05-14T12:45:58.459Z,42.88
2023-05-14T12:46:58.477Z,41.91
2023-05-14T12:47:58.514Z,42.02
2023-05-14T12:48:58.435Z,43.39
2023-05-14T12:49:58.464Z,44.32
2023-05-14T12:50:58.530Z,41.25
2023-05-14T12:52:13.231Z,38.72
2023-05-14T12:52:59.560Z,39.02